createdAt,value
2022-10-17T00:00:46.873Z,68.24
2022-10-17T00:01:46.756Z,68.17
2022-10-17T00:02:46.841Z,68.26
2022-10-17T00:03:46.826Z,67.80
2022-10-17T00:04:46.877Z,68.28
2022-10-17T00:05:46.690Z,68.01
2022-10-17T00:06:46.706Z,68.18
2022-10-17T00:07:46.592Z,68.38
2022-10-17T00:08:46.672Z,68.10
2022-10-17T00:09:46.660Z,68.09
2022-10-17T00:10:46.588Z,67.78
2022-10-17T00:11:46.714Z,68.26
2022-10-17T00:12:46.582Z,67.82
2022-10-17T00:13:46.694Z,67.69
2022-10-17T00:14:46.615Z,68.06
2022-10-17T00:15:46.678Z,68.13
2022-10-17T00:16:46.782Z,68.03
2022-10-17T00:17:46.511Z,68.01
2022-10-17T00:18:46.498Z,67.78
2022-10-17T00:19:46.552Z,67.50
2022-10-17T00:20:46.446Z,67.41
2022-10-17T00:21:46.440Z,67.60
2022-10-17T00:22:46.396Z,67.89
2022-10-17T00:23:46.421Z,67.70
2022-10-17T00:24:46.484Z,67.78
2022-10-17T00:25:46.467Z,67.65
2022-10-17T00:26:46.442Z,67.48
2022-10-17T00:27:46.483Z,67.89
2022-10-17T00:28:46.506Z,68.05
2022-10-17T00:29:46.664Z,67.72
2022-10-17T00:30:46.408Z,67.83
2022-10-17T00:31:46.354Z,67.97
2022-10-17T00:32:46.368Z,68.02
2022-10-17T00:33:46.425Z,68.06
2022-10-17T00:34:46.332Z,67.88
2022-10-17T00:35:46.294Z,67.85
2022-10-17T00:36:46.409Z,68.54
2022-10-17T00:37:46.253Z,67.96
2022-10-17T00:38:46.269Z,68.18
2022-10-17T00:39:46.255Z,68.68
2022-10-17T00:40:46.316Z,68.48
2022-10-17T00:41:46.252Z,68.07
2022-10-17T00:42:46.178Z,68.24
2022-10-17T00:43:46.193Z,68.35
2022-10-17T00:44:46.163Z,68.43
2022-10-17T00:45:46.196Z,68.44
2022-10-17T00:46:46.167Z,68.60
2022-10-17T00:47:46.169Z,69.17
2022-10-17T00:48:46.111Z,68.68
2022-10-17T00:49:46.225Z,68.39
2022-10-17T00:50:46.056Z,68.60
2022-10-17T00:51:46.217Z,68.82
2022-10-17T00:52:46.011Z,68.38
2022-10-17T00:53:46.150Z,68.26
2022-10-17T00:54:46.146Z,68.38
2022-10-17T00:55:46.015Z,68.34
2022-10-17T00:56:46.141Z,68.14
2022-10-17T00:57:46.141Z,68.24
2022-10-17T00:58:45.966Z,68.20
2022-10-17T00:59:45.953Z,68.37
2022-10-17T01:00:45.999Z,68.30
2022-10-17T01:01:46.376Z,68.43
2022-10-17T01:02:45.904Z,68.22
2022-10-17T01:03:45.938Z,68.36
2022-10-17T01:04:45.907Z,68.27
2022-10-17T01:05:45.827Z,68.25
2022-10-17T01:06:46.021Z,68.43
2022-10-17T01:07:45.848Z,68.26
2022-10-17T01:08:45.987Z,68.65
2022-10-17T01:09:45.857Z,68.51
2022-10-17T01:10:45.863Z,68.76
2022-10-17T01:11:45.835Z,68.81
2022-10-17T01:12:45.975Z,69.04
2022-10-17T01:13:45.834Z,69.01
2022-10-17T01:14:45.785Z,68.75
2022-10-17T01:15:45.755Z,68.73
2022-10-17T01:16:45.695Z,68.44
2022-10-17T01:17:45.731Z,68.64
2022-10-17T01:18:45.917Z,68.38
2022-10-17T01:19:45.679Z,68.66
2022-10-17T01:20:45.727Z,68.55
2022-10-17T01:21:45.661Z,68.64
2022-10-17T01:22:45.740Z,68.83
2022-10-17T01:23:45.638Z,68.62
2022-10-17T01:24:45.593Z,68.83
2022-10-17T01:25:45.631Z,68.80
2022-10-17T01:26:45.586Z,69.02
2022-10-17T01:27:45.589Z,68.85
2022-10-17T01:28:45.633Z,68.86
2022-10-17T01:29:45.539Z,68.77
2022-10-17T01:30:45.730Z,68.97
2022-10-17T01:31:45.534Z,69.04
2022-10-17T01:32:45.608Z,69.00
2022-10-17T01:33:45.525Z,68.98
2022-10-17T01:34:45.533Z,68.84
2022-10-17T01:35:45.593Z,69.13
2022-10-17T01:36:45.444Z,69.12
2022-10-17T01:37:45.454Z,68.88
2022-10-17T01:38:45.494Z,69.11
2022-10-17T01:39:47.814Z,69.07
2022-10-17T01:40:45.370Z,69.09
2022-10-17T01:41:45.368Z,69.16
2022-10-17T01:42:45.331Z,69.28
2022-10-17T01:43:45.368Z,69.22
2022-10-17T01:44:45.357Z,68.93
2022-10-17T01:45:45.342Z,69.24
2022-10-17T01:46:45.355Z,69.11
2022-10-17T01:47:45.385Z,69.34
2022-10-17T01:48:45.331Z,69.55
2022-10-17T01:49:45.214Z,69.28
2022-10-17T01:50:45.232Z,69.27
2022-10-17T01:51:45.354Z,69.27
2022-10-17T01:52:45.292Z,69.42
2022-10-17T01:53:45.364Z,69.43
2022-10-17T01:54:45.163Z,69.38
2022-10-17T01:55:45.209Z,69.20
2022-10-17T01:56:45.202Z,69.20
2022-10-17T01:57:45.354Z,69.26
2022-10-17T01:58:45.342Z,69.16
2022-10-17T01:59:45.199Z,68.75
2022-10-17T02:00:45.165Z,69.08
2022-10-17T02:01:45.236Z,68.90
2022-10-17T02:02:45.172Z,68.67
2022-10-17T02:03:45.187Z,68.90
2022-10-17T02:04:45.085Z,68.67
2022-10-17T02:05:45.220Z,68.90
2022-10-17T02:06:45.054Z,69.10
2022-10-17T02:07:45.077Z,68.95
2022-10-17T02:08:45.120Z,69.03
2022-10-17T02:09:45.027Z,68.99
2022-10-17T02:10:45.132Z,68.93
2022-10-17T02:11:45.034Z,69.39
2022-10-17T02:12:44.966Z,68.73
2022-10-17T02:13:45.049Z,68.85
2022-10-17T02:14:44.982Z,68.87
2022-10-17T02:15:44.931Z,68.90
2022-10-17T02:16:44.903Z,69.19
2022-10-17T02:17:44.953Z,69.44
2022-10-17T02:18:44.898Z,69.61
2022-10-17T02:19:44.940Z,69.61
2022-10-17T02:20:44.904Z,69.39
2022-10-17T02:21:44.849Z,69.13
2022-10-17T02:22:44.820Z,69.24
2022-10-17T02:23:44.972Z,69.20
2022-10-17T02:24:44.874Z,69.33
2022-10-17T02:25:44.862Z,69.35
2022-10-17T02:26:44.931Z,68.94
2022-10-17T02:27:44.741Z,68.51
2022-10-17T02:28:44.822Z,68.45
2022-10-17T02:29:44.766Z,68.60
2022-10-17T02:30:44.814Z,68.71
2022-10-17T02:31:44.689Z,68.58
2022-10-17T02:32:46.729Z,68.52
2022-10-17T02:33:44.814Z,68.68
2022-10-17T02:34:44.648Z,68.86
2022-10-17T02:35:44.678Z,68.42
2022-10-17T02:36:44.637Z,68.15
2022-10-17T02:37:44.645Z,68.47
2022-10-17T02:38:44.704Z,68.79
2022-10-17T02:39:44.656Z,68.49
2022-10-17T02:40:44.678Z,68.58
2022-10-17T02:41:44.641Z,68.62
2022-10-17T02:42:44.686Z,68.92
2022-10-17T02:43:44.806Z,69.08
2022-10-17T02:44:44.623Z,68.95
2022-10-17T02:45:44.666Z,68.40
2022-10-17T02:46:44.542Z,68.06
2022-10-17T02:47:44.617Z,67.71
2022-10-17T02:48:44.483Z,68.22
2022-10-17T02:49:44.577Z,68.54
2022-10-17T02:50:44.557Z,68.68
2022-10-17T02:51:44.479Z,68.62
2022-10-17T02:52:44.492Z,68.58
2022-10-17T02:53:44.503Z,68.76
2022-10-17T02:54:44.432Z,69.19
2022-10-17T02:55:44.417Z,69.36
2022-10-17T02:56:44.408Z,69.24
2022-10-17T02:57:44.554Z,69.46
2022-10-17T02:58:44.406Z,69.63
2022-10-17T02:59:44.364Z,69.35
2022-10-17T03:00:44.366Z,69.23
2022-10-17T03:01:44.444Z,69.61
2022-10-17T03:02:44.340Z,69.32
2022-10-17T03:03:44.349Z,69.31
2022-10-17T03:04:44.487Z,69.16
2022-10-17T03:05:44.331Z,69.32
2022-10-17T03:06:44.326Z,69.25
2022-10-17T03:07:44.283Z,69.40
2022-10-17T03:08:44.273Z,69.65
2022-10-17T03:09:44.204Z,69.48
2022-10-17T03:10:44.179Z,69.29
2022-10-17T03:11:44.238Z,69.08
2022-10-17T03:12:44.216Z,69.02
2022-10-17T03:13:44.197Z,68.97
2022-10-17T03:14:44.164Z,68.81
2022-10-17T03:15:44.133Z,68.91
2022-10-17T03:16:44.126Z,69.00
2022-10-17T03:18:46.604Z,68.62
2022-10-17T03:19:44.119Z,68.65
2022-10-17T03:20:44.122Z,68.59
2022-10-17T03:21:44.084Z,68.66
2022-10-17T03:22:44.017Z,68.98
2022-10-17T03:23:44.020Z,68.79
2022-10-17T03:24:44.009Z,68.91
2022-10-17T03:25:43.986Z,68.98
2022-10-17T03:26:44.063Z,68.70
2022-10-17T03:27:43.996Z,68.94
2022-10-17T03:28:44.045Z,68.63
2022-10-17T03:29:43.920Z,68.89
2022-10-17T03:30:43.970Z,68.72
2022-10-17T03:31:43.909Z,68.59
2022-10-17T03:32:43.917Z,68.63
2022-10-17T03:33:43.949Z,68.59
2022-10-17T03:34:43.858Z,68.21
2022-10-17T03:35:43.934Z,68.31
2022-10-17T03:36:43.862Z,68.25
2022-10-17T03:37:43.853Z,67.89
2022-10-17T03:38:43.838Z,67.51
2022-10-17T03:39:43.788Z,67.73
2022-10-17T03:40:43.851Z,67.73
2022-10-17T03:41:43.763Z,68.29
2022-10-17T03:42:43.785Z,68.09
2022-10-17T03:43:43.771Z,68.30
2022-10-17T03:44:43.752Z,68.32
2022-10-17T03:45:43.765Z,67.62
2022-10-17T03:46:43.760Z,68.26
2022-10-17T03:47:43.708Z,68.15
2022-10-17T03:48:43.729Z,67.97
2022-10-17T03:49:43.699Z,67.78
2022-10-17T03:50:43.701Z,67.60
2022-10-17T03:51:43.702Z,67.69
2022-10-17T03:52:43.685Z,67.81
2022-10-17T03:53:43.697Z,68.06
2022-10-17T03:54:43.644Z,68.40
2022-10-17T03:55:43.680Z,68.56
2022-10-17T03:56:43.620Z,68.65
2022-10-17T03:57:45.485Z,68.68
2022-10-17T03:58:43.559Z,68.83
2022-10-17T03:59:43.594Z,68.96
2022-10-17T04:00:43.687Z,69.42
2022-10-17T04:01:43.627Z,69.09
2022-10-17T04:02:43.566Z,69.05
2022-10-17T04:03:43.581Z,69.34
2022-10-17T04:04:43.506Z,69.46
2022-10-17T04:05:43.482Z,69.37
2022-10-17T04:06:43.482Z,69.47
2022-10-17T04:07:43.449Z,69.61
2022-10-17T04:08:43.452Z,69.58
2022-10-17T04:09:43.410Z,69.62
2022-10-17T04:10:43.410Z,69.86
2022-10-17T04:11:43.400Z,70.03
2022-10-17T04:12:43.389Z,69.79
2022-10-17T04:13:43.361Z,69.74
2022-10-17T04:14:43.565Z,69.81
2022-10-17T04:15:43.335Z,69.85
2022-10-17T04:16:43.403Z,70.08
2022-10-17T04:17:43.378Z,70.23
2022-10-17T04:18:43.292Z,70.64
2022-10-17T04:19:43.325Z,70.62
2022-10-17T04:20:43.268Z,70.77
2022-10-17T04:21:43.388Z,70.72
2022-10-17T04:22:43.332Z,70.51
2022-10-17T04:23:43.256Z,70.21
2022-10-17T04:24:43.254Z,70.08
2022-10-17T04:25:43.272Z,69.96
2022-10-17T04:26:43.177Z,69.99
2022-10-17T04:27:43.231Z,69.57
2022-10-17T04:28:43.222Z,69.64
2022-10-17T04:29:43.369Z,69.58
2022-10-17T04:30:45.502Z,69.51
2022-10-17T04:31:43.216Z,69.18
2022-10-17T04:32:43.216Z,68.43
2022-10-17T04:33:43.167Z,68.59
2022-10-17T04:34:43.135Z,68.99
2022-10-17T04:35:43.167Z,68.60
2022-10-17T04:36:43.144Z,69.08
2022-10-17T04:37:43.130Z,68.85
2022-10-17T04:38:43.053Z,68.79
2022-10-17T04:39:43.063Z,69.15
2022-10-17T04:40:43.091Z,69.46
2022-10-17T04:41:42.998Z,69.17
2022-10-17T04:42:43.076Z,69.24
2022-10-17T04:43:45.582Z,69.32
2022-10-17T04:44:43.054Z,68.95
2022-10-17T04:45:43.071Z,68.36
2022-10-17T04:46:42.946Z,68.51
2022-10-17T04:47:43.056Z,67.96
2022-10-17T04:48:42.983Z,67.90
2022-10-17T04:49:42.988Z,68.19
2022-10-17T04:50:42.962Z,68.68
2022-10-17T04:51:42.903Z,68.94
2022-10-17T04:52:43.066Z,69.48
2022-10-17T04:53:42.894Z,69.31
2022-10-17T04:54:42.886Z,69.44
2022-10-17T04:55:42.875Z,69.72
2022-10-17T04:56:42.789Z,69.77
2022-10-17T04:57:42.741Z,69.42
2022-10-17T04:58:42.748Z,69.49
2022-10-17T04:59:42.713Z,69.21
2022-10-17T05:00:42.745Z,68.98
2022-10-17T05:01:42.691Z,68.96
2022-10-17T05:02:42.680Z,69.28
2022-10-17T05:03:42.662Z,69.39
2022-10-17T05:04:42.638Z,69.18
2022-10-17T05:05:42.622Z,69.12
2022-10-17T05:06:42.612Z,68.70
2022-10-17T05:07:42.604Z,68.94
2022-10-17T05:08:42.618Z,68.87
2022-10-17T05:09:42.590Z,69.06
2022-10-17T05:10:42.621Z,69.08
2022-10-17T05:11:42.576Z,69.16
2022-10-17T05:12:42.555Z,69.06
2022-10-17T05:13:42.608Z,69.34
2022-10-17T05:14:42.643Z,69.39
2022-10-17T05:15:42.563Z,69.15
2022-10-17T05:16:42.493Z,69.19
2022-10-17T05:17:42.469Z,69.30
2022-10-17T05:18:42.509Z,69.47
2022-10-17T05:19:42.520Z,69.04
2022-10-17T05:20:42.438Z,69.06
2022-10-17T05:21:42.408Z,69.38
2022-10-17T05:22:42.471Z,69.46
2022-10-17T05:23:42.394Z,69.30
2022-10-17T05:24:42.374Z,69.31
2022-10-17T05:25:42.353Z,69.35
2022-10-17T05:26:42.345Z,69.48
2022-10-17T05:27:42.344Z,69.39
2022-10-17T05:28:42.401Z,69.37
2022-10-17T05:29:42.353Z,69.26
2022-10-17T05:30:42.295Z,69.57
2022-10-17T05:31:42.296Z,69.41
2022-10-17T05:32:42.286Z,69.63
2022-10-17T05:33:42.266Z,69.60
2022-10-17T05:34:42.256Z,69.24
2022-10-17T05:35:42.236Z,69.38
2022-10-17T05:36:42.218Z,69.12
2022-10-17T05:37:42.213Z,69.35
2022-10-17T05:38:42.200Z,69.22
2022-10-17T05:39:42.173Z,69.35
2022-10-17T05:40:42.171Z,68.80
2022-10-17T05:41:42.144Z,68.60
2022-10-17T05:42:42.155Z,68.83
2022-10-17T05:43:42.167Z,69.20
2022-10-17T05:44:42.122Z,69.13
2022-10-17T05:45:42.125Z,69.37
2022-10-17T05:46:42.079Z,69.32
2022-10-17T05:47:42.079Z,69.51
2022-10-17T05:48:42.066Z,69.27
2022-10-17T05:49:50.054Z,69.32
2022-10-17T05:50:42.050Z,69.33
2022-10-17T05:51:42.025Z,69.41
2022-10-17T05:52:44.024Z,69.30
2022-10-17T05:53:41.999Z,69.22
2022-10-17T05:54:42.011Z,69.51
2022-10-17T05:55:41.978Z,69.65
2022-10-17T05:56:41.953Z,69.50
2022-10-17T05:57:41.963Z,69.40
2022-10-17T05:58:50.974Z,69.40
2022-10-17T05:59:41.952Z,69.55
2022-10-17T06:00:41.934Z,69.44
2022-10-17T06:01:41.957Z,69.13
2022-10-17T06:02:41.909Z,69.04
2022-10-17T06:03:41.867Z,68.91
2022-10-17T06:04:41.850Z,69.03
2022-10-17T06:05:41.852Z,69.31
2022-10-17T06:06:41.822Z,69.06
2022-10-17T06:07:41.813Z,69.25
2022-10-17T06:08:41.816Z,69.12
2022-10-17T06:09:41.839Z,68.59
2022-10-17T06:10:41.769Z,68.84
2022-10-17T06:11:41.760Z,68.86
2022-10-17T06:12:41.767Z,68.87
2022-10-17T06:13:41.744Z,69.00
2022-10-17T06:14:41.732Z,68.93
2022-10-17T06:15:41.720Z,69.01
2022-10-17T06:16:41.713Z,68.96
2022-10-17T06:17:41.682Z,68.85
2022-10-17T06:18:41.749Z,69.23
2022-10-17T06:19:41.667Z,69.11
2022-10-17T06:20:45.291Z,69.02
2022-10-17T06:21:41.631Z,68.98
2022-10-17T06:22:41.614Z,68.78
2022-10-17T06:23:41.614Z,68.94
2022-10-17T06:24:41.585Z,68.86
2022-10-17T06:25:41.602Z,68.91
2022-10-17T06:26:41.563Z,68.81
2022-10-17T06:27:41.615Z,68.99
2022-10-17T06:28:41.605Z,69.21
2022-10-17T06:29:41.530Z,69.20
2022-10-17T06:30:41.524Z,69.17
2022-10-17T06:31:41.514Z,69.10
2022-10-17T06:32:41.498Z,68.89
2022-10-17T06:33:41.479Z,68.61
2022-10-17T06:34:41.466Z,68.79
2022-10-17T06:35:41.460Z,68.75
2022-10-17T06:36:41.453Z,68.54
2022-10-17T06:37:41.745Z,68.43
2022-10-17T06:38:41.422Z,68.44
2022-10-17T06:39:41.392Z,68.71
2022-10-17T06:40:41.388Z,68.76
2022-10-17T06:41:41.381Z,68.73
2022-10-17T06:42:41.355Z,68.70
2022-10-17T06:43:41.455Z,68.63
2022-10-17T06:44:41.319Z,68.58
2022-10-17T06:45:41.331Z,68.80
2022-10-17T06:46:41.304Z,68.56
2022-10-17T06:47:41.288Z,68.86
2022-10-17T06:48:41.269Z,69.05
2022-10-17T06:49:41.270Z,68.79
2022-10-17T06:50:41.258Z,69.04
2022-10-17T06:51:41.239Z,69.19
2022-10-17T06:52:41.234Z,69.03
2022-10-17T06:53:41.403Z,68.78
2022-10-17T06:54:41.208Z,68.83
2022-10-17T06:55:41.190Z,68.89
2022-10-17T06:56:41.172Z,68.92
2022-10-17T06:57:41.157Z,68.73
2022-10-17T06:58:41.153Z,68.88
2022-10-17T06:59:41.132Z,69.02
2022-10-17T07:00:41.324Z,68.88
2022-10-17T07:01:43.213Z,68.95
2022-10-17T07:02:41.103Z,68.86
2022-10-17T07:03:41.156Z,68.67
2022-10-17T07:04:41.102Z,68.54
2022-10-17T07:05:41.063Z,68.68
2022-10-17T07:06:41.040Z,68.66
2022-10-17T07:07:43.142Z,68.40
2022-10-17T07:08:41.009Z,68.28
2022-10-17T07:09:41.010Z,68.16
2022-10-17T07:10:40.981Z,68.23
2022-10-17T07:11:40.975Z,68.21
2022-10-17T07:12:40.959Z,67.98
2022-10-17T07:13:40.967Z,68.11
2022-10-17T07:14:40.929Z,68.39
2022-10-17T07:15:40.924Z,68.28
2022-10-17T07:16:40.914Z,68.23
2022-10-17T07:17:40.911Z,67.84
2022-10-17T07:18:40.878Z,67.91
2022-10-17T07:19:40.889Z,68.02
2022-10-17T07:20:40.851Z,67.88
2022-10-17T07:21:40.854Z,67.93
2022-10-17T07:22:40.836Z,67.77
2022-10-17T07:23:40.834Z,67.54
2022-10-17T07:24:40.846Z,67.47
2022-10-17T07:25:40.805Z,67.51
2022-10-17T07:26:40.852Z,67.38
2022-10-17T07:27:40.770Z,67.31
2022-10-17T07:28:40.809Z,67.21
2022-10-17T07:29:40.741Z,67.06
2022-10-17T07:30:40.732Z,67.12
2022-10-17T07:31:40.720Z,67.20
2022-10-17T07:32:40.704Z,66.89
2022-10-17T07:33:40.733Z,66.04
2022-10-17T07:34:40.674Z,66.35
2022-10-17T07:35:40.668Z,66.58
2022-10-17T07:36:40.657Z,66.85
2022-10-17T07:37:40.661Z,66.74
2022-10-17T07:38:40.632Z,66.87
2022-10-17T07:39:40.625Z,67.14
2022-10-17T07:40:40.590Z,67.00
2022-10-17T07:41:40.616Z,67.15
2022-10-17T07:42:40.636Z,67.33
2022-10-17T07:43:40.565Z,67.32
2022-10-17T07:44:40.536Z,67.13
2022-10-17T07:45:40.527Z,67.07
2022-10-17T07:46:40.510Z,67.14
2022-10-17T07:47:40.514Z,67.18
2022-10-17T07:48:40.483Z,67.01
2022-10-17T07:49:40.468Z,66.73
2022-10-17T07:50:40.479Z,66.94
2022-10-17T07:51:40.546Z,66.88
2022-10-17T07:52:40.465Z,66.75
2022-10-17T07:53:42.683Z,66.87
2022-10-17T07:54:40.418Z,66.93
2022-10-17T07:55:40.401Z,66.49
2022-10-17T07:56:40.378Z,66.62
2022-10-17T07:57:40.390Z,66.31
2022-10-17T07:58:40.356Z,66.22
2022-10-17T07:59:40.342Z,66.10
2022-10-17T08:00:40.459Z,65.70
2022-10-17T08:01:40.316Z,65.64
2022-10-17T08:02:40.336Z,65.72
2022-10-17T08:03:40.288Z,65.87
2022-10-17T08:04:40.279Z,66.12
2022-10-17T08:05:40.273Z,65.58
2022-10-17T08:06:40.254Z,65.72
2022-10-17T08:07:40.259Z,65.74
2022-10-17T08:08:40.225Z,65.76
2022-10-17T08:09:40.217Z,65.41
2022-10-17T08:10:40.243Z,65.40
2022-10-17T08:11:40.187Z,64.88
2022-10-17T08:12:40.179Z,64.84
2022-10-17T08:13:40.178Z,64.57
2022-10-17T08:14:40.143Z,64.76
2022-10-17T08:15:40.142Z,64.69
2022-10-17T08:16:40.126Z,64.49
2022-10-17T08:17:40.119Z,64.49
2022-10-17T08:18:40.097Z,64.85
2022-10-17T08:19:40.084Z,64.65
2022-10-17T08:20:40.066Z,64.51
2022-10-17T08:21:40.059Z,64.47
2022-10-17T08:22:40.060Z,64.10
2022-10-17T08:23:40.048Z,63.81
2022-10-17T08:24:40.018Z,63.96
2022-10-17T08:25:40.057Z,63.83
2022-10-17T08:26:42.475Z,63.87
2022-10-17T08:27:39.982Z,64.03
2022-10-17T08:28:40.104Z,63.60
2022-10-17T08:29:39.963Z,63.66
2022-10-17T08:30:39.935Z,63.26
2022-10-17T08:31:39.924Z,63.02
2022-10-17T08:32:39.911Z,62.84
2022-10-17T08:33:39.911Z,62.58
2022-10-17T08:34:39.883Z,62.44
2022-10-17T08:35:39.875Z,62.60
2022-10-17T08:36:39.859Z,62.80
2022-10-17T08:37:39.849Z,62.23
2022-10-17T08:38:43.084Z,62.09
2022-10-17T08:39:39.840Z,62.24
2022-10-17T08:40:39.813Z,62.32
2022-10-17T08:41:39.795Z,60.70
2022-10-17T08:42:39.788Z,61.49
2022-10-17T08:43:39.783Z,61.11
2022-10-17T08:44:39.781Z,59.87
2022-10-17T08:45:39.744Z,59.76
2022-10-17T08:46:39.748Z,59.88
2022-10-17T08:47:39.729Z,59.61
2022-10-17T08:48:42.745Z,59.52
2022-10-17T08:49:39.705Z,59.83
2022-10-17T08:50:39.685Z,60.32
2022-10-17T08:51:39.669Z,59.53
2022-10-17T08:52:39.651Z,59.09
2022-10-17T08:53:39.660Z,59.07
2022-10-17T08:54:39.641Z,59.01
2022-10-17T08:55:42.807Z,58.35
2022-10-17T08:56:55.068Z,58.04
2022-10-17T08:57:39.599Z,58.00
2022-10-17T08:58:39.577Z,58.06
2022-10-17T08:59:39.590Z,58.71
2022-10-17T09:00:39.547Z,58.83
2022-10-17T09:01:39.553Z,59.20
2022-10-17T09:02:39.555Z,59.15
2022-10-17T09:03:39.509Z,58.77
2022-10-17T09:04:39.517Z,58.63
2022-10-17T09:05:39.494Z,58.46
2022-10-17T09:06:39.480Z,58.30
2022-10-17T09:07:39.471Z,58.45
2022-10-17T09:08:39.447Z,58.22
2022-10-17T09:09:39.444Z,58.13
2022-10-17T09:10:39.425Z,58.06
2022-10-17T09:11:39.435Z,58.31
2022-10-17T09:12:39.389Z,58.87
2022-10-17T09:13:39.386Z,58.42
2022-10-17T09:14:39.377Z,58.31
2022-10-17T09:15:39.356Z,58.48
2022-10-17T09:16:39.343Z,58.39
2022-10-17T09:17:39.338Z,58.65
2022-10-17T09:18:39.308Z,58.81
2022-10-17T09:19:39.318Z,58.98
2022-10-17T09:20:39.293Z,58.99
2022-10-17T09:21:39.281Z,59.15
2022-10-17T09:22:39.273Z,59.19
2022-10-17T09:23:41.817Z,59.11
2022-10-17T09:24:39.257Z,59.42
2022-10-17T09:25:39.224Z,59.43
2022-10-17T09:26:39.219Z,59.32
2022-10-17T09:27:39.205Z,59.41
2022-10-17T09:28:39.235Z,59.40
2022-10-17T09:29:43.727Z,59.34
2022-10-17T09:30:46.763Z,59.20
2022-10-17T09:31:39.163Z,59.29
2022-10-17T09:32:39.134Z,59.25
2022-10-17T09:33:55.239Z,58.79
2022-10-17T09:34:39.129Z,58.80
2022-10-17T09:35:39.110Z,58.70
2022-10-17T09:36:39.087Z,59.15
2022-10-17T09:37:39.083Z,58.80
2022-10-17T09:38:39.063Z,59.11
2022-10-17T09:39:39.050Z,58.53
2022-10-17T09:40:39.032Z,59.08
2022-10-17T09:41:45.230Z,58.71
2022-10-17T09:42:39.007Z,58.59
2022-10-17T09:43:39.003Z,58.39
2022-10-17T09:44:38.977Z,58.29
2022-10-17T09:45:38.976Z,58.54
2022-10-17T09:46:38.961Z,58.30
2022-10-17T09:47:38.957Z,58.44
2022-10-17T09:48:38.943Z,58.45
2022-10-17T09:49:38.918Z,58.45
2022-10-17T09:50:38.906Z,58.47
2022-10-17T09:51:39.182Z,58.95
2022-10-17T09:52:38.905Z,58.58
2022-10-17T09:53:38.877Z,58.17
2022-10-17T09:54:38.865Z,58.23
2022-10-17T09:55:38.843Z,58.37
2022-10-17T09:56:38.833Z,58.33
2022-10-17T09:57:38.836Z,58.43
2022-10-17T09:58:38.805Z,57.91
2022-10-17T09:59:38.796Z,57.94
2022-10-17T10:00:38.860Z,57.58
2022-10-17T10:01:38.767Z,57.53
2022-10-17T10:02:38.766Z,57.69
2022-10-17T10:03:38.751Z,58.05
2022-10-17T10:04:53.051Z,58.15
2022-10-17T10:05:38.718Z,57.82
2022-10-17T10:06:38.711Z,57.73
2022-10-17T10:07:38.785Z,57.78
2022-10-17T10:08:38.680Z,57.80
2022-10-17T10:09:40.176Z,58.09
2022-10-17T10:10:38.664Z,58.03
2022-10-17T10:11:38.636Z,57.66
2022-10-17T10:12:38.626Z,57.85
2022-10-17T10:13:38.624Z,58.05
2022-10-17T10:14:38.605Z,58.00
2022-10-17T10:15:38.591Z,57.91
2022-10-17T10:16:38.582Z,57.68
2022-10-17T10:17:38.565Z,57.50
2022-10-17T10:18:38.558Z,57.25
2022-10-17T10:19:38.539Z,57.71
2022-10-17T10:20:38.533Z,57.60
2022-10-17T10:21:38.514Z,57.29
2022-10-17T10:22:38.502Z,57.19
2022-10-17T10:23:38.502Z,57.19
2022-10-17T10:24:38.480Z,57.39
2022-10-17T10:25:38.463Z,57.53
2022-10-17T10:26:38.448Z,57.11
2022-10-17T10:27:38.436Z,57.20
2022-10-17T10:28:38.502Z,57.16
2022-10-17T10:29:38.445Z,56.76
2022-10-17T10:30:40.014Z,57.05
2022-10-17T10:31:38.396Z,56.89
2022-10-17T10:32:38.369Z,56.77
2022-10-17T10:33:41.573Z,56.65
2022-10-17T10:34:38.351Z,56.73
2022-10-17T10:35:38.333Z,57.24
2022-10-17T10:36:38.339Z,57.46
2022-10-17T10:37:38.315Z,56.91
2022-10-17T10:38:38.309Z,56.48
2022-10-17T10:39:38.318Z,56.43
2022-10-17T10:40:38.272Z,55.93
2022-10-17T10:41:38.263Z,55.48
2022-10-17T10:42:38.248Z,55.43
2022-10-17T10:43:38.230Z,55.22
2022-10-17T10:44:38.234Z,55.97
2022-10-17T10:45:53.609Z,56.68
2022-10-17T10:46:38.207Z,55.66
2022-10-17T10:47:38.183Z,55.78
2022-10-17T10:48:38.188Z,55.52
2022-10-17T10:49:38.168Z,55.21
2022-10-17T10:50:41.727Z,55.35
2022-10-17T10:51:38.128Z,55.33
2022-10-17T10:52:38.113Z,55.53
2022-10-17T10:53:38.106Z,55.46
2022-10-17T10:55:38.086Z,56.73
2022-10-17T10:56:46.341Z,55.95
2022-10-17T10:57:38.070Z,55.46
2022-10-17T10:58:41.764Z,55.52
2022-10-17T10:59:38.064Z,55.32
2022-10-17T11:00:38.101Z,56.26
2022-10-17T11:01:38.021Z,56.64
2022-10-17T11:02:37.978Z,55.41
2022-10-17T11:03:38.053Z,54.76
2022-10-17T11:04:38.030Z,53.41
2022-10-17T11:05:37.992Z,53.21
2022-10-17T11:06:38.015Z,52.70
2022-10-17T11:07:37.955Z,51.69
2022-10-17T11:08:38.017Z,52.42
2022-10-17T11:09:37.922Z,51.56
2022-10-17T11:10:37.909Z,51.74
2022-10-17T11:11:37.896Z,52.43
2022-10-17T11:12:37.877Z,51.83
2022-10-17T11:13:37.847Z,52.11
2022-10-17T11:14:37.823Z,52.22
2022-10-17T11:15:37.812Z,51.53
2022-10-17T11:16:37.806Z,52.03
2022-10-17T11:17:37.797Z,52.00
2022-10-17T11:18:37.799Z,52.36
2022-10-17T11:19:37.784Z,52.81
2022-10-17T11:20:37.776Z,52.75
2022-10-17T11:21:37.781Z,54.85
2022-10-17T11:22:38.008Z,52.59
2022-10-17T11:23:37.735Z,51.44
2022-10-17T11:24:37.959Z,50.80
2022-10-17T11:25:37.732Z,50.90
2022-10-17T11:26:37.680Z,51.18
2022-10-17T11:27:37.652Z,51.07
2022-10-17T11:28:37.710Z,50.14
2022-10-17T11:29:37.632Z,50.15
2022-10-17T11:30:37.699Z,50.31
2022-10-17T11:31:37.610Z,50.87
2022-10-17T11:32:37.582Z,51.74
2022-10-17T11:33:37.593Z,51.60
2022-10-17T11:34:37.576Z,51.62
2022-10-17T11:35:37.547Z,52.04
2022-10-17T11:36:37.553Z,52.79
2022-10-17T11:37:37.522Z,52.09
2022-10-17T11:38:37.515Z,51.92
2022-10-17T11:39:37.558Z,51.90
2022-10-17T11:40:37.498Z,52.92
2022-10-17T11:41:37.488Z,52.39
2022-10-17T11:42:37.499Z,51.01
2022-10-17T11:43:37.468Z,51.19
2022-10-17T11:44:37.431Z,49.21
2022-10-17T11:45:37.471Z,49.39
2022-10-17T11:46:37.415Z,48.61
2022-10-17T11:47:37.421Z,48.45
2022-10-17T11:48:37.416Z,48.90
2022-10-17T11:49:40.704Z,49.22
2022-10-17T11:52:56.002Z,47.37
2022-10-17T11:53:37.340Z,47.50
2022-10-17T11:54:37.312Z,47.48
2022-10-17T11:55:37.285Z,47.47
2022-10-17T11:56:41.804Z,47.56
2022-10-17T11:57:37.297Z,47.90
2022-10-17T11:58:37.538Z,47.59
2022-10-17T11:59:37.236Z,46.87
2022-10-17T12:00:39.324Z,46.23
2022-10-17T12:01:38.112Z,46.52
2022-10-17T12:02:37.232Z,46.82
2022-10-17T12:03:37.194Z,46.92
2022-10-17T12:04:37.247Z,46.81
2022-10-17T12:05:37.159Z,46.85
2022-10-17T12:06:37.151Z,47.27
2022-10-17T12:07:37.170Z,46.38
2022-10-17T12:08:37.123Z,46.00
2022-10-17T12:09:37.101Z,46.40
2022-10-17T12:10:37.096Z,45.90
2022-10-17T12:11:37.128Z,45.28
2022-10-17T12:12:37.088Z,45.62
2022-10-17T12:13:37.063Z,46.40
2022-10-17T12:14:37.072Z,45.63
2022-10-17T12:15:37.027Z,44.38
2022-10-17T12:16:37.052Z,43.79
2022-10-17T12:17:37.008Z,43.55
2022-10-17T12:18:37.017Z,43.71
2022-10-17T12:19:36.985Z,43.88
2022-10-17T12:20:36.959Z,43.81
2022-10-17T12:21:40.357Z,43.03
2022-10-17T12:22:37.020Z,42.45
2022-10-17T12:23:36.963Z,42.40
2022-10-17T12:24:36.933Z,41.91
2022-10-17T12:25:36.966Z,41.78
2022-10-17T12:26:36.917Z,42.30
2022-10-17T12:27:36.898Z,42.41
2022-10-17T12:28:36.888Z,42.40
2022-10-17T12:29:36.842Z,41.92
2022-10-17T12:30:36.831Z,41.43
2022-10-17T12:31:36.817Z,41.69
2022-10-17T12:32:53.403Z,43.22
2022-10-17T12:33:36.794Z,41.98
2022-10-17T12:34:36.837Z,40.92
2022-10-17T12:35:36.782Z,41.14
2022-10-17T12:36:36.780Z,40.39
2022-10-17T12:37:36.744Z,40.84
2022-10-17T12:38:36.754Z,40.54
2022-10-17T12:39:36.748Z,41.18
2022-10-17T12:40:36.721Z,41.15
2022-10-17T12:41:36.720Z,40.05
2022-10-17T12:42:36.733Z,39.52
2022-10-17T12:43:36.728Z,39.12
2022-10-17T12:44:36.706Z,38.59
2022-10-17T12:45:36.634Z,38.52
2022-10-17T12:46:36.661Z,37.44
2022-10-17T12:47:36.634Z,37.67
2022-10-17T12:48:36.640Z,37.54
2022-10-17T12:49:36.604Z,37.66
2022-10-17T12:50:38.135Z,37.84
2022-10-17T12:51:37.917Z,36.83
2022-10-17T12:52:36.560Z,36.01
2022-10-17T12:53:36.552Z,36.29
2022-10-17T12:54:47.017Z,37.30
2022-10-17T12:55:36.550Z,35.79
2022-10-17T12:56:36.577Z,34.50